Aviation Digital Data Service (ADDS)

Output produced by METARs form (1648 UTC 20 January 2019)
found at http://www.aviationweather.gov/metar/data/
 
KWJF 201140Z 2012/2112 29006KT P6SM SCT200 
     FM202200 26013KT P6SM BKN200 
     FM210300 25015G25KT P6SM BKN200 
     FM210600 26025G35KT P6SM BKN050 BKN200 
     FM210900 28035G42KT P6SM BKN150
       
KWMC 201120Z 2012/2112 VRB06KT P6SM BKN200 
     FM201400 17011KT P6SM OVC200 
     FM201800 20010G20KT P6SM VCSH SCT025 OVC045 
     FM210000 21012G22KT P6SM -SHRA OVC025 
     FM210300 24012G22KT 5SM -RA BR BKN015 OVC025 
     FM210800 28010KT 5SM -SN BR OVC015
       
TAF AMD KWRI 201620Z 2016/2116 28012G18KT 9999 BKN008 QNH2923INS 
     TEMPO 2016/2018 18015G25KT OVC015 
     BECMG 2018/2019 32025G35KT 9999 FEW040 SCT065 510008 QNH2946INS 
     BECMG 2105/2106 31020G25KT 9999 SCT030 BKN060 QNH2951INS TX10/2016Z
TNM11/2108Z
       
KWRL 201139Z 2012/2112 VRB05KT P6SM VCSH SCT040 BKN080 
     FM201600 VRB05KT P6SM SCT080 BKN200 
     FM211100 VRB05KT P6SM SCT050 BKN100